createdAt,value
2019-04-21T00:00:14.923Z,0.00
2019-04-21T00:01:12.528Z,0.00
2019-04-21T00:02:14.618Z,0.00
2019-04-21T00:03:18.198Z,0.00
2019-04-21T00:04:28.797Z,0.00
2019-04-21T00:05:31.408Z,0.00
2019-04-21T00:06:29.932Z,0.00
2019-04-21T00:07:33.295Z,0.00
2019-04-21T00:08:41.585Z,0.00
2019-04-21T00:09:33.718Z,0.00
2019-04-21T00:10:36.379Z,0.00
2019-04-21T00:11:29.857Z,0.00
2019-04-21T00:12:31.444Z,0.00
2019-04-21T00:13:29.501Z,0.00
2019-04-21T00:14:22.675Z,0.00
2019-04-21T00:15:20.526Z,0.00
2019-04-21T00:16:14.130Z,0.00
2019-04-21T00:17:15.375Z,0.00
2019-04-21T00:18:12.246Z,0.00
2019-04-21T00:19:17.786Z,0.00
2019-04-21T00:20:22.714Z,0.00
2019-04-21T00:21:25.591Z,0.00
2019-04-21T00:22:23.530Z,0.00
2019-04-21T00:23:31.173Z,0.00
2019-04-21T00:24:24.983Z,0.00
2019-04-21T00:25:23.559Z,0.00
2019-04-21T00:26:27.849Z,0.00
2019-04-21T00:27:28.388Z,0.00
2019-04-21T00:28:39.488Z,0.00
2019-04-21T00:29:36.626Z,0.00
2019-04-21T00:30:34.127Z,0.00
2019-04-21T00:31:28.555Z,0.00
2019-04-21T00:32:25.337Z,0.00
2019-04-21T00:33:19.166Z,0.00
2019-04-21T00:34:12.971Z,0.00
2019-04-21T00:35:16.994Z,0.00
2019-04-21T00:36:19.952Z,0.00
2019-04-21T00:37:20.765Z,0.00
2019-04-21T00:38:32.377Z,0.00
2019-04-21T00:39:45.015Z,0.00
2019-04-21T00:40:35.132Z,0.00
2019-04-21T00:41:33.840Z,0.00
2019-04-21T00:42:30.341Z,0.00
2019-04-21T00:43:29.373Z,0.00
2019-04-21T00:44:26.125Z,0.00
2019-04-21T00:45:27.496Z,0.00
2019-04-21T00:46:31.885Z,0.00
2019-04-21T00:47:34.566Z,0.00
2019-04-21T00:48:37.876Z,0.00
2019-04-21T00:49:32.002Z,0.00
2019-04-21T00:50:40.613Z,0.00
2019-04-21T00:51:43.567Z,0.00
2019-04-21T00:52:46.257Z,0.00
2019-04-21T00:53:43.582Z,0.00
2019-04-21T00:54:41.688Z,0.00
2019-04-21T00:55:42.627Z,0.00
2019-04-21T00:56:35.315Z,0.00
2019-04-21T00:57:38.863Z,0.00
2019-04-21T00:58:33.255Z,0.00
2019-04-21T00:59:34.953Z,0.00
2019-04-21T01:00:32.566Z,0.00
2019-04-21T01:01:31.269Z,0.00
2019-04-21T01:02:39.698Z,0.00
2019-04-21T01:03:40.112Z,0.00
2019-04-21T01:04:37.058Z,0.00
2019-04-21T01:05:37.071Z,0.00
2019-04-21T01:06:38.152Z,0.00
2019-04-21T01:07:38.138Z,0.00
2019-04-21T01:08:31.130Z,0.00
2019-04-21T01:09:29.180Z,0.00
2019-04-21T01:10:24.161Z,0.00
2019-04-21T01:11:31.864Z,0.00
2019-04-21T01:12:37.394Z,0.00
2019-04-21T01:13:51.990Z,0.00
2019-04-21T01:14:43.853Z,0.00
2019-04-21T01:15:37.364Z,0.00
2019-04-21T01:16:39.808Z,0.00
2019-04-21T01:17:35.253Z,0.00
2019-04-21T01:18:32.671Z,0.00
2019-04-21T01:19:33.452Z,0.00
2019-04-21T01:20:17.564Z,0.00
2019-04-21T01:21:14.526Z,0.00
2019-04-21T01:22:13.528Z,0.00
2019-04-21T01:23:14.632Z,0.00
2019-04-21T01:24:24.060Z,0.00
2019-04-21T01:25:24.783Z,0.00
2019-04-21T01:26:28.829Z,0.00
2019-04-21T01:27:26.243Z,0.00
2019-04-21T01:28:29.287Z,0.00
2019-04-21T01:29:36.905Z,0.00
2019-04-21T01:30:39.001Z,0.00
2019-04-21T01:31:30.601Z,0.00
2019-04-21T01:32:38.603Z,0.00
2019-04-21T01:33:38.343Z,0.00
2019-04-21T01:34:33.190Z,0.00
2019-04-21T01:35:36.204Z,0.00
2019-04-21T01:36:33.347Z,0.00
2019-04-21T01:37:42.173Z,0.00
2019-04-21T01:38:40.127Z,0.00
2019-04-21T01:39:41.153Z,0.00
2019-04-21T01:40:33.780Z,0.00
2019-04-21T01:41:40.936Z,0.00
2019-04-21T01:42:36.523Z,0.00
2019-04-21T01:43:38.403Z,0.00
2019-04-21T01:44:44.544Z,0.00
2019-04-21T01:45:35.521Z,0.00
2019-04-21T01:46:29.652Z,0.00
2019-04-21T01:47:35.331Z,0.00
2019-04-21T01:48:30.855Z,0.00
2019-04-21T01:49:27.953Z,0.00
2019-04-21T01:50:34.462Z,0.00
2019-04-21T01:51:28.153Z,0.00
2019-04-21T01:53:39.526Z,0.00
2019-04-21T01:54:35.262Z,0.00
2019-04-21T01:55:36.851Z,0.00
2019-04-21T01:56:34.034Z,0.00
2019-04-21T01:57:29.633Z,0.00
2019-04-21T01:58:27.967Z,0.00
2019-04-21T01:59:32.018Z,0.00
2019-04-21T02:00:36.798Z,0.00
2019-04-21T02:01:37.130Z,0.00
2019-04-21T02:02:41.421Z,0.00
2019-04-21T02:04:42.942Z,0.00
2019-04-21T02:05:39.217Z,0.00
2019-04-21T02:06:33.099Z,0.00
2019-04-21T02:07:38.989Z,0.00
2019-04-21T02:08:31.296Z,0.00
2019-04-21T02:09:38.981Z,0.00
2019-04-21T02:10:39.779Z,0.00
2019-04-21T02:11:37.952Z,0.00
2019-04-21T02:12:41.075Z,0.00
2019-04-21T02:13:35.295Z,0.00
2019-04-21T02:14:41.222Z,0.00
2019-04-21T02:15:48.795Z,0.00
2019-04-21T02:16:36.144Z,0.00
2019-04-21T02:17:34.158Z,0.00
2019-04-21T02:18:35.005Z,0.00
2019-04-21T02:19:31.246Z,0.00
2019-04-21T02:20:26.828Z,0.00
2019-04-21T02:21:31.705Z,0.00
2019-04-21T02:22:46.153Z,0.00
2019-04-21T02:23:46.007Z,0.00
2019-04-21T02:24:45.158Z,0.00
2019-04-21T02:25:42.484Z,0.00
2019-04-21T02:26:50.442Z,0.00
2019-04-21T02:27:36.244Z,0.00
2019-04-21T02:28:45.115Z,0.00
2019-04-21T02:29:40.681Z,0.00
2019-04-21T02:30:56.498Z,0.00
2019-04-21T02:32:00.370Z,0.00
2019-04-21T02:32:48.385Z,0.00
2019-04-21T02:34:57.541Z,0.00
2019-04-21T02:36:18.944Z,0.00
2019-04-21T02:36:53.278Z,0.00
2019-04-21T02:37:54.775Z,0.00
2019-04-21T02:39:08.210Z,0.00
2019-04-21T02:39:49.570Z,0.00
2019-04-21T02:41:47.423Z,0.00
2019-04-21T02:43:07.372Z,0.00
2019-04-21T02:43:54.348Z,0.00
2019-04-21T02:44:51.690Z,0.00
2019-04-21T02:45:52.879Z,0.00
2019-04-21T02:46:42.089Z,0.00
2019-04-21T02:48:08.765Z,0.00
2019-04-21T02:49:53.492Z,0.00
2019-04-21T02:52:53.853Z,0.00
2019-04-21T02:55:02.738Z,0.00
2019-04-21T02:55:43.579Z,0.00
2019-04-21T02:56:52.886Z,0.00
2019-04-21T02:57:52.047Z,0.00
2019-04-21T02:59:49.386Z,0.00
2019-04-21T03:00:45.136Z,0.00
2019-04-21T03:01:56.867Z,0.00
2019-04-21T03:02:47.064Z,0.00
2019-04-21T03:03:54.979Z,0.00
2019-04-21T03:04:53.138Z,0.00
2019-04-21T03:06:59.411Z,0.00
2019-04-21T03:09:44.834Z,0.00
2019-04-21T03:10:53.739Z,0.00
2019-04-21T03:11:56.500Z,0.00
2019-04-21T03:12:48.076Z,0.00
2019-04-21T03:14:56.212Z,0.00
2019-04-21T03:16:04.957Z,0.00
2019-04-21T03:16:44.786Z,0.00
2019-04-21T03:17:54.962Z,0.00
2019-04-21T03:18:54.610Z,0.00
2019-04-21T03:20:53.309Z,0.00
2019-04-21T03:21:48.990Z,0.00
2019-04-21T03:22:58.136Z,0.00
2019-04-21T03:25:04.303Z,0.00
2019-04-21T03:27:01.494Z,0.00
2019-04-21T03:27:56.854Z,0.00
2019-04-21T03:28:54.410Z,0.00
2019-04-21T03:29:54.678Z,0.00
2019-04-21T03:32:28.408Z,0.00
2019-04-21T03:33:23.778Z,0.00
2019-04-21T03:34:28.950Z,0.00
2019-04-21T03:35:14.909Z,0.00
2019-04-21T03:36:13.041Z,0.00
2019-04-21T03:37:52.406Z,4.00
2019-04-21T03:38:51.413Z,4.00
2019-04-21T03:39:52.790Z,0.00
2019-04-21T03:41:04.160Z,4.00
2019-04-21T03:42:07.533Z,4.00
2019-04-21T03:43:54.697Z,4.00
2019-04-21T03:45:09.805Z,4.00
2019-04-21T03:45:49.329Z,4.00
2019-04-21T03:47:06.862Z,8.00
2019-04-21T03:47:46.453Z,8.00
2019-04-21T03:48:51.698Z,8.00
2019-04-21T03:49:54.775Z,12.00
2019-04-21T03:51:04.831Z,16.00
2019-04-21T03:51:55.203Z,16.00
2019-04-21T03:52:53.273Z,20.00
2019-04-21T03:53:46.212Z,20.00
2019-04-21T03:54:53.904Z,28.00
2019-04-21T03:58:05.518Z,44.00
2019-04-21T03:58:58.621Z,48.00
2019-04-21T04:00:03.627Z,56.00
2019-04-21T04:02:03.828Z,76.00
2019-04-21T04:02:55.126Z,88.00
2019-04-21T04:04:54.960Z,108.00
2019-04-21T04:06:56.655Z,144.00
2019-04-21T04:08:04.678Z,160.00
2019-04-21T04:09:52.489Z,200.00
2019-04-21T04:11:05.091Z,224.00
2019-04-21T04:12:50.388Z,272.00
2019-04-21T04:13:56.054Z,304.00
2019-04-21T04:14:53.482Z,328.00
2019-04-21T04:16:07.015Z,364.00
2019-04-21T04:17:00.134Z,396.00
2019-04-21T04:17:46.945Z,428.00
2019-04-21T04:18:52.844Z,464.00
2019-04-21T04:19:58.503Z,500.00
2019-04-21T04:21:00.363Z,544.00
2019-04-21T04:21:57.566Z,584.00
2019-04-21T04:22:56.419Z,628.00
2019-04-21T04:23:51.339Z,672.00
2019-04-21T04:24:57.929Z,716.00
2019-04-21T04:25:53.612Z,768.00
2019-04-21T04:28:02.158Z,868.00
2019-04-21T04:28:58.006Z,916.00
2019-04-21T04:29:52.961Z,972.00
2019-04-21T04:31:43.150Z,1080.00
2019-04-21T04:32:51.902Z,1140.00
2019-04-21T04:33:55.470Z,1196.00
2019-04-21T04:34:58.823Z,1256.00
2019-04-21T04:36:04.261Z,1316.00
2019-04-21T04:37:12.275Z,1376.00
2019-04-21T04:39:22.569Z,1504.00
2019-04-21T04:40:02.871Z,1564.00
2019-04-21T04:40:56.020Z,1628.00
2019-04-21T04:42:12.686Z,1688.00
2019-04-21T04:42:55.884Z,1756.00
2019-04-21T04:43:54.665Z,1820.00
2019-04-21T04:45:10.186Z,1880.00
2019-04-21T04:46:57.033Z,2008.00
2019-04-21T04:47:59.922Z,2076.00
2019-04-21T04:48:51.641Z,2136.00
2019-04-21T04:49:51.657Z,2200.00
2019-04-21T04:51:01.307Z,2260.00
2019-04-21T04:52:18.885Z,2320.00
2019-04-21T04:53:48.752Z,2444.00
2019-04-21T04:57:00.984Z,2632.00
2019-04-21T04:58:02.500Z,2692.00
2019-04-21T04:59:19.411Z,2756.00
2019-04-21T05:00:00.799Z,2812.00
2019-04-21T05:01:08.570Z,2876.00
2019-04-21T05:02:00.302Z,2932.00
2019-04-21T05:02:48.832Z,2988.00
2019-04-21T05:05:04.917Z,3092.00
2019-04-21T05:05:56.957Z,3148.00
2019-04-21T05:06:56.361Z,3196.00
2019-04-21T05:09:53.571Z,3352.00
2019-04-21T05:12:51.141Z,3504.00
2019-04-21T05:13:55.796Z,3556.00
2019-04-21T05:14:55.109Z,3604.00
2019-04-21T05:15:53.291Z,3648.00
2019-04-21T05:17:02.234Z,3700.00
2019-04-21T05:17:50.965Z,3744.00
2019-04-21T05:19:06.456Z,3796.00
2019-04-21T05:20:03.563Z,3836.00
2019-04-21T05:20:52.271Z,3884.00
2019-04-21T05:21:48.347Z,3932.00
2019-04-21T05:22:48.962Z,3976.00
2019-04-21T05:23:44.293Z,4020.00
2019-04-21T05:24:38.999Z,4060.00
2019-04-21T05:25:38.827Z,4100.00
2019-04-21T05:26:39.076Z,4144.00
2019-04-21T05:27:40.973Z,4184.00
2019-04-21T05:28:37.056Z,4228.00
2019-04-21T05:29:50.978Z,4264.00
2019-04-21T05:30:50.171Z,4300.00
2019-04-21T05:31:51.133Z,4340.00
2019-04-21T05:32:48.803Z,4380.00
2019-04-21T05:33:48.673Z,4408.00
2019-04-21T05:34:43.099Z,4440.00
2019-04-21T05:35:45.200Z,4472.00
2019-04-21T05:36:48.656Z,4504.00
2019-04-21T05:37:42.913Z,4536.00
2019-04-21T05:38:43.585Z,4564.00
2019-04-21T05:39:39.023Z,4596.00
2019-04-21T05:40:41.400Z,4624.00
2019-04-21T05:41:34.848Z,4648.00
2019-04-21T05:42:44.425Z,4676.00
2019-04-21T05:43:48.042Z,4708.00
2019-04-21T05:44:52.810Z,4736.00
2019-04-21T05:45:50.045Z,4764.00
2019-04-21T05:46:54.286Z,4792.00
2019-04-21T05:47:48.653Z,4816.00
2019-04-21T05:48:45.702Z,4844.00
2019-04-21T05:49:45.593Z,4876.00
2019-04-21T05:50:40.105Z,4900.00
2019-04-21T05:51:39.833Z,4932.00
2019-04-21T05:52:41.830Z,4952.00
2019-04-21T05:53:46.738Z,4984.00
2019-04-21T05:54:53.055Z,5012.00
2019-04-21T05:55:50.282Z,5032.00
2019-04-21T05:56:42.347Z,5060.00
2019-04-21T05:57:51.195Z,5084.00
2019-04-21T05:58:46.319Z,5112.00
2019-04-21T05:59:43.475Z,5128.00
2019-04-21T06:01:06.473Z,5156.00
2019-04-21T06:01:50.301Z,5172.00
2019-04-21T06:02:53.430Z,5192.00
2019-04-21T06:03:52.378Z,5208.00
2019-04-21T06:06:10.807Z,5240.00
2019-04-21T06:06:47.691Z,5260.00
2019-04-21T06:07:48.986Z,5268.00
2019-04-21T06:08:42.282Z,5284.00
2019-04-21T06:09:52.391Z,5300.00
2019-04-21T06:10:52.945Z,5308.00
2019-04-21T06:11:45.768Z,5320.00
2019-04-21T06:12:51.075Z,5340.00
2019-04-21T06:14:52.193Z,5384.00
2019-04-21T06:15:52.903Z,5400.00
2019-04-21T06:16:49.884Z,5420.00
2019-04-21T06:17:54.819Z,5440.00
2019-04-21T06:18:53.157Z,5456.00
2019-04-21T06:19:49.402Z,5476.00
2019-04-21T06:20:46.687Z,5492.00
2019-04-21T06:21:44.907Z,5508.00
2019-04-21T06:22:52.038Z,5520.00
2019-04-21T06:23:44.749Z,5532.00
2019-04-21T06:25:11.513Z,5552.00
2019-04-21T06:26:59.219Z,5576.00
2019-04-21T06:27:44.669Z,5584.00
2019-04-21T06:29:50.183Z,5604.00
2019-04-21T06:30:59.388Z,5616.00
2019-04-21T06:32:14.287Z,5624.00
2019-04-21T06:32:50.499Z,5644.00
2019-04-21T06:35:06.249Z,5672.00
2019-04-21T06:35:59.785Z,5688.00
2019-04-21T06:36:47.418Z,5700.00
2019-04-21T06:37:51.027Z,5712.00
2019-04-21T06:39:06.389Z,5732.00
2019-04-21T06:40:01.665Z,5740.00
2019-04-21T06:40:48.448Z,5756.00
2019-04-21T06:41:48.419Z,5764.00
2019-04-21T06:42:54.071Z,5768.00
2019-04-21T06:43:58.451Z,5772.00
2019-04-21T06:44:54.066Z,5772.00
2019-04-21T06:45:53.698Z,5772.00
2019-04-21T06:46:44.898Z,5772.00
2019-04-21T06:47:51.264Z,5772.00
2019-04-21T06:48:49.781Z,5780.00
2019-04-21T06:49:44.262Z,5784.00
2019-04-21T06:50:55.477Z,5792.00
2019-04-21T06:51:48.476Z,5796.00
2019-04-21T06:52:53.898Z,5800.00
2019-04-21T06:53:52.438Z,5800.00
2019-04-21T06:54:48.216Z,5796.00
2019-04-21T06:55:43.530Z,5792.00
2019-04-21T06:56:51.272Z,5796.00
2019-04-21T06:57:50.448Z,5808.00
2019-04-21T06:58:48.485Z,5808.00
2019-04-21T06:59:43.405Z,5820.00
2019-04-21T07:00:41.308Z,5832.00
2019-04-21T07:01:52.742Z,5836.00
2019-04-21T07:02:51.922Z,5836.00
2019-04-21T07:04:50.132Z,5832.00
2019-04-21T07:06:00.291Z,5836.00
2019-04-21T07:06:53.687Z,5836.00
2019-04-21T07:07:54.916Z,5836.00
2019-04-21T07:08:55.320Z,5836.00
2019-04-21T07:09:52.774Z,5832.00
2019-04-21T07:10:51.741Z,5828.00
2019-04-21T07:11:52.848Z,5832.00
2019-04-21T07:12:45.287Z,5840.00
2019-04-21T07:13:51.023Z,5844.00
2019-04-21T07:14:47.901Z,5856.00
2019-04-21T07:15:51.431Z,5860.00
2019-04-21T07:16:50.930Z,5864.00
2019-04-21T07:17:56.660Z,5868.00
2019-04-21T07:18:53.769Z,5864.00
2019-04-21T07:20:07.238Z,5864.00
2019-04-21T07:20:50.550Z,5868.00
2019-04-21T07:21:51.318Z,5864.00
2019-04-21T07:22:50.892Z,5860.00
2019-04-21T07:23:55.584Z,5856.00
2019-04-21T07:24:48.226Z,5860.00
2019-04-21T07:25:56.513Z,5860.00
2019-04-21T07:26:51.062Z,5856.00
2019-04-21T07:27:52.279Z,5856.00
2019-04-21T07:28:56.843Z,5856.00
2019-04-21T07:29:54.289Z,5856.00
2019-04-21T07:30:57.559Z,5848.00
2019-04-21T07:32:05.088Z,5848.00
2019-04-21T07:32:55.307Z,5852.00
2019-04-21T07:34:17.419Z,5852.00
2019-04-21T07:34:57.580Z,5852.00
2019-04-21T07:35:50.898Z,5852.00
2019-04-21T07:37:52.337Z,5848.00
2019-04-21T07:38:49.791Z,5840.00
2019-04-21T07:39:46.659Z,5836.00
2019-04-21T07:41:38.781Z,5820.00
2019-04-21T07:42:47.023Z,5812.00
2019-04-21T07:43:44.345Z,5812.00
2019-04-21T07:44:44.742Z,5812.00
2019-04-21T07:45:47.296Z,5808.00
2019-04-21T07:46:41.639Z,5800.00
2019-04-21T07:47:53.441Z,5800.00
2019-04-21T07:48:50.092Z,5796.00
2019-04-21T07:49:53.047Z,5796.00
2019-04-21T07:50:51.986Z,5796.00
2019-04-21T07:51:54.510Z,5784.00
2019-04-21T07:52:53.405Z,5776.00
2019-04-21T07:53:55.751Z,5768.00
2019-04-21T07:54:57.565Z,5756.00
2019-04-21T07:55:30.107Z,5744.00
2019-04-21T07:56:35.025Z,5736.00
2019-04-21T07:57:41.721Z,5728.00
2019-04-21T07:58:53.612Z,5724.00
2019-04-21T07:59:56.540Z,5732.00
2019-04-21T08:01:11.712Z,5728.00
2019-04-21T08:01:51.392Z,5724.00
2019-04-21T08:02:49.601Z,5728.00
2019-04-21T08:04:20.924Z,5724.00
2019-04-21T08:05:52.993Z,5728.00
2019-04-21T08:06:51.946Z,5736.00
2019-04-21T08:07:52.138Z,5736.00
2019-04-21T08:08:50.486Z,5740.00
2019-04-21T08:09:47.953Z,5736.00
2019-04-21T08:10:44.171Z,5732.00
2019-04-21T08:11:44.262Z,5716.00
2019-04-21T08:14:00.998Z,5700.00
2019-04-21T08:14:55.942Z,5692.00
2019-04-21T08:15:51.040Z,5680.00
2019-04-21T08:16:51.072Z,5668.00
2019-04-21T08:17:47.204Z,5664.00
2019-04-21T08:18:52.427Z,5656.00
2019-04-21T08:19:51.449Z,5644.00
2019-04-21T08:20:48.055Z,5640.00
2019-04-21T08:22:53.602Z,5632.00
2019-04-21T08:23:48.392Z,5632.00
2019-04-21T08:24:50.087Z,5632.00
2019-04-21T08:25:58.901Z,5628.00
2019-04-21T08:26:51.002Z,5624.00
2019-04-21T08:27:55.551Z,5612.00
2019-04-21T08:28:56.383Z,5604.00
2019-04-21T08:29:52.177Z,5604.00
2019-04-21T08:30:50.459Z,5596.00
2019-04-21T08:32:00.874Z,5588.00
2019-04-21T08:33:55.659Z,5564.00
2019-04-21T08:35:08.500Z,5556.00
2019-04-21T08:36:52.819Z,5552.00
2019-04-21T08:37:50.862Z,5552.00
2019-04-21T08:38:53.685Z,5544.00
2019-04-21T08:39:55.080Z,5544.00
2019-04-21T08:40:51.804Z,5544.00
2019-04-21T08:41:52.363Z,5548.00
2019-04-21T08:42:52.190Z,5560.00
2019-04-21T08:44:05.192Z,5568.00
2019-04-21T08:44:54.109Z,5568.00
2019-04-21T08:45:56.898Z,5568.00
2019-04-21T08:46:52.738Z,5568.00
2019-04-21T08:47:52.345Z,5556.00
2019-04-21T08:49:47.308Z,5548.00
2019-04-21T08:51:00.415Z,5556.00
2019-04-21T08:51:57.175Z,5552.00
2019-04-21T08:53:56.821Z,5540.00
2019-04-21T08:54:55.886Z,5536.00
2019-04-21T08:55:58.948Z,5540.00
2019-04-21T08:56:52.641Z,5540.00
2019-04-21T08:58:00.870Z,5548.00
2019-04-21T08:58:59.207Z,5544.00
2019-04-21T08:59:56.571Z,5544.00
2019-04-21T09:00:55.188Z,5548.00
2019-04-21T09:01:50.788Z,5552.00
2019-04-21T09:02:59.800Z,5552.00
2019-04-21T09:03:52.087Z,5548.00
2019-04-21T09:04:52.860Z,5536.00
2019-04-21T09:05:51.250Z,5520.00
2019-04-21T09:07:20.002Z,5508.00
2019-04-21T09:07:53.692Z,5496.00
2019-04-21T09:08:53.580Z,5484.00
2019-04-21T09:09:52.949Z,5464.00
2019-04-21T09:10:55.971Z,5448.00
2019-04-21T09:11:54.086Z,5444.00
2019-04-21T09:12:49.129Z,5436.00
2019-04-21T09:13:47.687Z,5428.00
2019-04-21T09:14:50.252Z,5420.00
2019-04-21T09:15:47.463Z,5408.00
2019-04-21T09:16:47.272Z,5400.00
2019-04-21T09:17:44.518Z,5396.00
2019-04-21T09:18:47.067Z,5396.00
2019-04-21T09:20:53.779Z,5396.00
2019-04-21T09:22:13.297Z,5392.00
2019-04-21T09:22:50.655Z,5396.00
2019-04-21T09:23:52.361Z,5400.00
2019-04-21T09:24:51.670Z,5396.00
2019-04-21T09:25:53.135Z,5392.00
2019-04-21T09:26:55.275Z,5384.00
2019-04-21T09:27:46.753Z,5376.00
2019-04-21T09:28:46.404Z,5368.00
2019-04-21T09:29:39.313Z,5360.00
2019-04-21T09:30:41.640Z,5360.00
2019-04-21T09:31:39.219Z,5356.00
2019-04-21T09:32:34.870Z,5356.00
2019-04-21T09:33:40.877Z,5340.00
2019-04-21T09:34:40.050Z,5332.00
2019-04-21T09:35:33.541Z,5332.00
2019-04-21T09:36:38.950Z,5336.00
2019-04-21T09:37:44.452Z,5340.00
2019-04-21T09:38:38.247Z,5344.00
2019-04-21T09:39:38.686Z,5344.00
2019-04-21T09:40:37.258Z,5344.00
2019-04-21T09:41:36.377Z,5324.00
2019-04-21T09:42:41.540Z,5312.00
2019-04-21T09:43:40.080Z,5312.00
2019-04-21T09:44:40.016Z,5316.00
2019-04-21T09:45:33.352Z,5312.00
2019-04-21T09:46:40.971Z,5308.00
2019-04-21T09:47:40.167Z,5316.00
2019-04-21T09:48:44.245Z,5320.00
2019-04-21T09:49:35.609Z,5316.00
2019-04-21T09:50:35.010Z,5316.00
2019-04-21T09:51:34.611Z,5312.00
2019-04-21T09:52:44.372Z,5308.00
2019-04-21T09:53:37.758Z,5304.00
2019-04-21T09:54:40.896Z,5304.00
2019-04-21T09:55:44.015Z,5304.00
2019-04-21T09:56:41.509Z,5300.00
2019-04-21T09:57:41.562Z,5292.00
2019-04-21T09:58:40.265Z,5280.00
2019-04-21T09:59:39.814Z,5276.00
2019-04-21T10:00:46.370Z,5268.00
2019-04-21T10:01:52.968Z,5260.00
2019-04-21T10:02:43.860Z,5244.00
2019-04-21T10:03:42.771Z,5236.00
2019-04-21T10:04:35.566Z,5232.00
2019-04-21T10:05:34.256Z,5236.00
2019-04-21T10:06:35.007Z,5248.00
2019-04-21T10:07:38.282Z,5260.00
2019-04-21T10:08:34.466Z,5248.00
2019-04-21T10:09:35.560Z,5252.00
2019-04-21T10:10:34.475Z,5252.00
2019-04-21T10:11:35.541Z,5244.00
2019-04-21T10:12:35.062Z,5252.00
2019-04-21T10:13:36.080Z,5252.00
2019-04-21T10:14:34.667Z,5256.00
2019-04-21T10:15:35.505Z,5248.00
2019-04-21T10:16:34.754Z,5252.00
2019-04-21T10:17:35.119Z,5256.00
2019-04-21T10:18:35.841Z,5256.00
2019-04-21T10:19:36.172Z,5244.00
2019-04-21T10:20:36.053Z,5248.00
2019-04-21T10:21:36.041Z,5248.00
2019-04-21T10:22:35.156Z,5248.00
2019-04-21T10:23:35.850Z,5252.00
2019-04-21T10:24:36.262Z,5244.00
2019-04-21T10:25:35.158Z,5248.00
2019-04-21T10:26:35.610Z,5240.00
2019-04-21T10:27:35.243Z,5228.00
2019-04-21T10:28:35.289Z,5228.00
2019-04-21T10:29:40.840Z,5232.00
2019-04-21T10:30:36.381Z,5236.00
2019-04-21T10:31:36.676Z,5236.00
2019-04-21T10:32:36.417Z,5236.00
2019-04-21T10:33:36.658Z,5232.00
2019-04-21T10:34:36.795Z,5236.00
2019-04-21T10:35:35.605Z,5240.00
2019-04-21T10:36:35.649Z,5240.00
2019-04-21T10:37:47.404Z,5236.00
2019-04-21T10:38:42.551Z,5240.00
2019-04-21T10:39:35.830Z,5240.00
2019-04-21T10:40:37.293Z,5244.00
2019-04-21T10:41:37.240Z,5236.00
2019-04-21T10:42:37.266Z,5244.00
2019-04-21T10:43:37.217Z,5268.00
2019-04-21T10:44:36.867Z,5288.00
2019-04-21T10:45:36.964Z,5296.00
2019-04-21T10:46:36.910Z,5296.00
2019-04-21T10:47:36.851Z,5284.00
2019-04-21T10:48:37.859Z,5284.00
2019-04-21T10:49:36.918Z,5276.00
2019-04-21T10:50:37.049Z,5268.00
2019-04-21T10:51:37.012Z,5264.00
2019-04-21T10:52:37.351Z,5264.00
2019-04-21T10:53:36.796Z,5256.00
2019-04-21T10:55:00.693Z,5252.00
2019-04-21T10:55:54.264Z,5244.00
2019-04-21T10:56:41.731Z,5232.00
2019-04-21T10:57:36.605Z,5228.00
2019-04-21T10:58:36.658Z,5240.00
2019-04-21T10:59:37.213Z,5244.00
2019-04-21T11:00:36.738Z,5248.00
2019-04-21T11:01:36.912Z,5260.00
2019-04-21T11:02:36.914Z,5272.00
2019-04-21T11:03:38.145Z,5288.00
2019-04-21T11:04:39.076Z,5276.00
2019-04-21T11:05:36.966Z,5276.00
2019-04-21T11:06:37.020Z,5284.00
2019-04-21T11:07:52.991Z,5296.00
2019-04-21T11:08:41.643Z,5316.00
2019-04-21T11:09:38.016Z,5336.00
2019-04-21T11:10:38.185Z,5356.00
2019-04-21T11:11:37.703Z,5380.00
2019-04-21T11:12:39.328Z,5408.00
2019-04-21T11:13:38.729Z,5420.00
2019-04-21T11:14:37.386Z,5412.00
2019-04-21T11:15:37.425Z,5396.00
2019-04-21T11:16:37.467Z,5376.00
2019-04-21T11:17:37.516Z,5376.00
2019-04-21T11:18:37.840Z,5372.00
2019-04-21T11:19:38.896Z,5368.00
2019-04-21T11:20:37.649Z,5372.00
2019-04-21T11:21:38.751Z,5388.00
2019-04-21T11:22:38.897Z,5404.00
2019-04-21T11:23:37.846Z,5416.00
2019-04-21T11:24:38.977Z,5432.00
2019-04-21T11:25:37.879Z,5444.00
2019-04-21T11:26:37.956Z,5448.00
2019-04-21T11:27:37.971Z,5452.00
2019-04-21T11:28:38.929Z,5452.00
2019-04-21T11:29:39.161Z,5460.00
2019-04-21T11:30:38.107Z,5456.00
2019-04-21T11:31:38.935Z,5452.00
2019-04-21T11:32:39.262Z,5448.00
2019-04-21T11:33:39.562Z,5452.00
2019-04-21T11:34:39.006Z,5448.00
2019-04-21T11:35:39.336Z,5456.00
2019-04-21T11:36:38.385Z,5472.00
2019-04-21T11:37:38.428Z,5492.00
2019-04-21T11:38:54.192Z,5516.00
2019-04-21T11:39:46.118Z,5532.00
2019-04-21T11:40:39.908Z,5536.00
2019-04-21T11:41:39.400Z,5540.00
2019-04-21T11:42:39.783Z,5536.00
2019-04-21T11:43:39.127Z,5520.00
2019-04-21T11:44:39.512Z,5512.00
2019-04-21T11:45:39.979Z,5524.00
2019-04-21T11:46:38.839Z,5536.00
2019-04-21T11:47:38.885Z,5536.00
2019-04-21T11:48:39.952Z,5544.00
2019-04-21T11:49:39.047Z,5540.00
2019-04-21T11:50:39.219Z,5524.00
2019-04-21T11:51:39.069Z,5520.00
2019-04-21T11:52:39.215Z,5508.00
2019-04-21T11:53:39.201Z,5508.00
2019-04-21T11:54:40.527Z,5504.00
2019-04-21T11:55:42.962Z,5496.00
2019-04-21T11:56:39.301Z,5488.00
2019-04-21T11:57:43.074Z,5480.00
2019-04-21T11:58:39.555Z,5492.00
2019-04-21T11:59:39.687Z,5492.00
2019-04-21T12:00:39.935Z,5492.00
2019-04-21T12:01:39.541Z,5472.00
2019-04-21T12:02:39.707Z,5472.00
2019-04-21T12:03:39.944Z,5472.00
2019-04-21T12:04:39.666Z,5476.00
2019-04-21T12:05:39.714Z,5488.00
2019-04-21T12:06:45.414Z,5488.00
2019-04-21T12:07:40.896Z,5500.00
2019-04-21T12:08:44.318Z,5508.00
2019-04-21T12:09:39.899Z,5504.00
2019-04-21T12:10:39.944Z,5512.00
2019-04-21T12:11:41.035Z,5516.00
2019-04-21T12:12:41.250Z,5516.00
2019-04-21T12:13:40.380Z,5524.00
2019-04-21T12:14:40.129Z,5528.00
2019-04-21T12:15:40.910Z,5544.00
2019-04-21T12:16:41.253Z,5552.00
2019-04-21T12:17:41.704Z,5564.00
2019-04-21T12:18:40.781Z,5572.00
2019-04-21T12:19:40.908Z,5580.00
2019-04-21T12:20:40.422Z,5588.00
2019-04-21T12:21:54.619Z,5592.00
2019-04-21T12:22:41.187Z,5608.00
2019-04-21T12:23:40.606Z,5628.00
2019-04-21T12:24:40.613Z,5640.00
2019-04-21T12:25:40.998Z,5664.00
2019-04-21T12:26:42.107Z,5688.00
2019-04-21T12:27:41.664Z,5704.00
2019-04-21T12:28:41.830Z,5720.00
2019-04-21T12:29:41.880Z,5728.00
2019-04-21T12:30:41.925Z,5732.00
2019-04-21T12:31:41.399Z,5744.00
2019-04-21T12:32:42.149Z,5740.00
2019-04-21T12:33:42.219Z,5728.00
2019-04-21T12:34:41.731Z,5724.00
2019-04-21T12:35:41.876Z,5724.00
2019-04-21T12:36:42.098Z,5732.00
2019-04-21T12:37:42.642Z,5740.00
2019-04-21T12:38:48.404Z,5736.00
2019-04-21T12:39:41.285Z,5744.00
2019-04-21T12:40:42.269Z,5752.00
2019-04-21T12:41:42.627Z,5760.00
2019-04-21T12:42:42.400Z,5772.00
2019-04-21T12:43:42.588Z,5776.00
2019-04-21T12:44:41.518Z,5780.00
2019-04-21T12:45:41.994Z,5784.00
2019-04-21T12:46:41.626Z,5800.00
2019-04-21T12:47:41.967Z,5812.00
2019-04-21T12:48:42.078Z,5828.00
2019-04-21T12:49:41.765Z,5856.00
2019-04-21T12:50:41.804Z,5872.00
2019-04-21T12:51:41.936Z,5884.00
2019-04-21T12:52:42.087Z,5892.00
2019-04-21T12:53:41.939Z,5892.00
2019-04-21T12:54:42.001Z,5892.00
2019-04-21T12:55:44.812Z,5896.00
2019-04-21T12:56:43.251Z,5904.00
2019-04-21T12:57:43.448Z,5900.00
2019-04-21T12:58:43.271Z,5896.00
2019-04-21T12:59:42.700Z,5904.00
2019-04-21T13:00:42.910Z,5916.00
2019-04-21T13:01:43.122Z,5924.00
2019-04-21T13:02:43.427Z,5924.00
2019-04-21T13:03:43.702Z,5932.00
2019-04-21T13:04:43.679Z,5932.00
2019-04-21T13:05:43.427Z,5936.00
2019-04-21T13:06:43.565Z,5944.00
2019-04-21T13:07:43.702Z,5948.00
2019-04-21T13:08:51.835Z,5960.00
2019-04-21T13:09:44.191Z,5980.00
2019-04-21T13:10:42.732Z,5992.00
2019-04-21T13:11:43.478Z,6012.00
2019-04-21T13:12:43.862Z,6036.00
2019-04-21T13:13:43.880Z,6044.00
2019-04-21T13:14:44.040Z,6056.00
2019-04-21T13:15:43.385Z,6056.00
2019-04-21T13:16:43.401Z,6060.00
2019-04-21T13:17:45.748Z,6068.00
2019-04-21T13:18:43.102Z,6088.00
2019-04-21T13:19:43.267Z,6100.00
2019-04-21T13:20:44.271Z,6112.00